< Typhoon 195903 1959 Season Typhoon 195905 >
Typhoon 195904 (WILDA)
General InformationTrack Information on Google Maps || Disaster Info.ResourceGoogle EarthGE AnimationAtom FeedGeoJSON
Detalied Best Track (Time Zone = UTC)
Year Month Day Hour Lat. Long. Pressure (hPa) Wind (kt) Class Image Chart
1959 7 4 00 16.0 118.0 1006 0 2 -- Chart
1959 7 4 06 16.0 116.4 1004 0 2 -- Chart
1959 7 4 12 16.0 115.0 1004 0 2 -- Chart
1959 7 4 18 16.6 113.6 1004 0 2 -- Chart
1959 7 5 00 18.0 113.8 1004 0 2 -- Chart
1959 7 5 06 19.8 114.6 1002 0 2 -- Chart
1959 7 5 12 21.0 115.9 1000 0 9 -- Chart
1959 7 5 18 22.0 116.5 1000 0 9 -- Chart
1959 7 6 00 23.4 116.3 1001 0 2 -- Chart
1959 7 6 06 24.9 116.7 1000 0 2 -- Chart
1959 7 6 12 26.3 117.1 1003 0 2 -- Chart
1959 7 6 18 27.7 117.7 1003 0 2 -- Chart
1959 7 7 00 29.9 119.4 1003 0 2 -- Chart
1959 7 7 06 31.2 120.9 1000 0 2 -- Chart
1959 7 7 12 33.0 123.0 1000 0 2 -- Chart
1959 7 7 18 34.4 127.0 998 0 2 -- Chart
1959 7 8 00 36.0 131.0 994 0 2 -- Chart
1959 7 8 06 38.0 134.0 994 0 6 -- Chart
1959 7 8 12 41.0 136.2 990 0 6 -- Chart
1959 7 8 18 43.0 138.0 990 0 6 -- Chart
1959 7 9 00 46.0 140.0 990 0 6 -- Chart
1959 7 9 06 47.4 139.5 992 0 6 -- Chart
1959 7 9 12 49.0 138.0 994 0 6 -- Chart
1959 7 9 18 49.5 141.5 994 0 6 -- Chart
1959 7 10 00 51.0 143.8 996 0 6 -- Chart
1959 7 10 06 51.3 144.4 996 0 6 -- Chart
1959 7 10 12 51.5 145.0 998 0 6 -- Chart
Japan Meteorological Agency Best Track Data | Correction Date : 1989-06-01
< Typhoon 195903 1959 Season Typhoon 195905 >

Help